Ana Sayfa
METAR-TAF:

METAR-TAF

Havaalanları :

Marsa Alem, Mısır

Enlem: 25-33-25N, Boylam: 34-35-01E, yükseklik: 77 m

Güncel hava durumu gözlemi

Rapor saat 09:00 UTC de 1 saat ve 2 dakika önce yapıldı.
Rüzgar kuzeydan 18 kt
Sıcaklık 39°C
Nem 18%
Basınç 1005 hPa
Görüş mesafesi 10 km veya daha fazla
1500 m altında bulut yok ve kümülonimbus yok

METAR: HEMA 250900Z 36018KT CAVOK 39/10 Q1005 NOSIG

Saat: 12:02 (10:02 UTC)

Tahmin

Rapor saat 05:00 UTC de 5 saat ve 2 dakika önce yapıldı.
Ayın 25'si saat 06 UTC'den ayın 26'si saat 12 UTC'ye kadar geçerli Tahmin
Rüzgar kuzeydan 15 kt
Görüş mesafesi 10 km veya daha fazla
1500 m altında bulut yok ve kümülonimbus yok

TAF: HEMA 250500Z 2506/2612 36015KT CAVOK

4.000'den fazla havaalanı için hava durumu gözlemleri ve tahminleri (METAR ve TAF raporları).

Kullanılabilir istasyonlar harita üzerinde sarı ve kırmızı noktalarla gösterilir.

İstasyonun adını görmek için fareyi noktanın üzerinde gezdirin.

Sonrasında hava gözlem ve tahminlerini görmek için tıklayın.

Haritayı değiştirmek için: yaklaştırmak için siyah artı işaretli yeşil düğmeye ve uzaklaştırmak için de eksi işaretli düğmeye hızla tıklayın; bitişik haritalar için yeşil okları kullanın.


METAR-TAF: